Time;durP1;ratioP1;P1;durP2;ratioP2;P2;SDS_P1;SDS_P2;PMS_P1;PMS_P2;Temp;Humidity;BMP_temperature;BMP_pressure;BME280_temperature;BME280_humidity;BME280_pressure;Samples;Min_cycle;Max_cycle;Signal;HPM_P1;HPM_P2
2021/07/04 08:27:37;;;;;;;4.75;3.58;;;;;;;;;;5073192;28;20497;-60
2021/07/04 08:30:07;;;;;;;7.40;3.85;;;;;;;;;;5066551;28;20037;-61
2021/07/04 08:32:33;;;;;;;4.80;3.67;;;;;;;;;;5063340;28;20091;-61
2021/07/04 08:35:00;;;;;;;4.20;3.63;;;;;;;;;;5064633;28;20045;-61
2021/07/04 08:37:26;;;;;;;4.40;3.55;;;;;;;;;;5064979;28;20403;-61
2021/07/04 08:39:53;;;;;;;4.95;3.40;;;;;;;;;;5061085;28;20064;-61
2021/07/04 08:42:19;;;;;;;4.05;3.55;;;;;;;;;;5061370;28;20778;-61
2021/07/04 08:44:50;;;;;;;25.23;4.30;;;;;;;;;;5059234;28;20505;-60
2021/07/04 08:47:17;;;;;;;4.93;3.72;;;;;;;;;;5063735;28;20047;-59
2021/07/04 08:49:46;;;;;;;4.50;3.28;;;;;;;;;;5063914;28;20045;-59
2021/07/04 08:52:14;;;;;;;4.55;3.28;;;;;;;;;;5061929;28;20040;-59
2021/07/04 08:54:41;;;;;;;3.63;2.80;;;;;;;;;;5060853;28;20127;-59
2021/07/04 08:57:11;;;;;;;3.83;3.10;;;;;;;;;;5061041;28;20140;-59
2021/07/04 08:59:39;;;;;;;5.30;3.45;;;;;;;;;;5058928;28;20094;-59
2021/07/04 09:02:10;;;;;;;5.97;3.28;;;;;;;;;;5063477;28;20041;-59
2021/07/04 09:04:38;;;;;;;3.95;3.22;;;;;;;;;;5061629;28;20052;-59
2021/07/04 09:07:05;;;;;;;3.50;3.20;;;;;;;;;;5059290;28;20098;-58
2021/07/04 09:09:33;;;;;;;3.60;3.30;;;;;;;;;;5065981;28;20033;-59
2021/07/04 09:12:02;;;;;;;5.03;3.15;;;;;;;;;;5059052;28;20055;-59
2021/07/04 09:14:38;;;;;;;3.40;3.10;;;;;;;;;;5059705;28;20064;-59
2021/07/04 09:17:31;;;;;;;3.63;3.03;;;;;;;;;;5062924;28;20403;-59
2021/07/04 09:19:59;;;;;;;4.93;4.00;;;;;;;;;;5062610;28;20036;-59
2021/07/04 09:22:30;;;;;;;7.45;3.67;;;;;;;;;;5064291;28;20740;-60
2021/07/04 09:25:29;;;;;;;4.88;3.55;;;;;;;;;;5061765;28;20033;-60
2021/07/04 09:28:13;;;;;;;4.43;3.25;;;;;;;;;;5030763;28;20056;-60
2021/07/04 09:30:39;;;;;;;3.92;3.38;;;;;;;;;;5063470;28;20068;-60
2021/07/04 09:33:14;;;;;;;5.15;3.53;;;;;;;;;;5059659;28;20051;-60
2021/07/04 09:35:51;;;;;;;3.85;3.30;;;;;;;;;;5057628;28;20469;-60
2021/07/04 09:38:18;;;;;;;4.05;3.65;;;;;;;;;;5048229;28;20091;-60
2021/07/04 09:40:44;;;;;;;3.40;3.10;;;;;;;;;;5048687;28;20033;-60
2021/07/04 09:43:15;;;;;;;3.63;3.33;;;;;;;;;;5046025;28;20044;-60
2021/07/04 09:45:46;;;;;;;4.40;3.55;;;;;;;;;;5044118;28;20207;-60
2021/07/04 09:48:34;;;;;;;5.40;3.83;;;;;;;;;;5046290;28;20739;-60
2021/07/04 09:51:02;;;;;;;;;;;;;;;;;;5051357;28;20098;-60
2021/07/04 09:53:33;;;;;;;4.82;3.88;;;;;;;;;;5040255;28;20441;-60
2021/07/04 09:56:16;;;;;;;7.65;3.85;;;;;;;;;;5049198;28;20047;-60
2021/07/04 09:58:47;;;;;;;4.40;4.00;;;;;;;;;;5046800;28;20530;-60
2021/07/04 10:01:34;;;;;;;5.00;3.47;;;;;;;;;;5049322;28;20087;-60
2021/07/04 10:04:04;;;;;;;4.43;3.72;;;;;;;;;;5038638;28;20045;-60
2021/07/04 10:06:44;;;;;;;4.97;3.90;;;;;;;;;;5048710;28;20049;-60
2021/07/04 10:09:12;;;;;;;4.13;3.72;;;;;;;;;;5044549;28;20041;-60
2021/07/04 10:11:39;;;;;;;5.30;3.90;;;;;;;;;;5046090;28;20042;-60
2021/07/04 10:14:05;;;;;;;5.65;4.38;;;;;;;;;;5042101;28;20056;-60
2021/07/04 10:16:32;;;;;;;5.03;4.43;;;;;;;;;;5048847;28;20053;-60
2021/07/04 10:19:01;;;;;;;5.28;3.95;;;;;;;;;;5046738;28;20107;-60
2021/07/04 10:21:29;;;;;;;5.53;3.90;;;;;;;;;;5046085;28;20041;-60
2021/07/04 10:23:57;;;;;;;6.80;4.25;;;;;;;;;;5043243;28;20043;-60
2021/07/04 10:26:25;;;;;;;4.45;3.90;;;;;;;;;;5047682;28;20051;-60
2021/07/04 10:28:55;;;;;;;5.32;3.80;;;;;;;;;;5046230;28;20191;-60
2021/07/04 11:28:38;;;;;;;4.55;3.50;;;;;;;;;;5054370;28;20388;-61
2021/07/04 11:31:19;;;;;;;6.53;3.78;;;;;;;;;;5056011;28;20418;-59
2021/07/04 11:33:48;;;;;;;4.85;3.42;;;;;;;;;;5048933;28;20043;-59
2021/07/04 11:36:15;;;;;;;4.68;3.15;;;;;;;;;;5057217;28;20047;-59
2021/07/04 11:39:03;;;;;;;5.78;3.40;;;;;;;;;;5070941;28;20096;-59
2021/07/04 11:41:31;;;;;;;3.42;3.10;;;;;;;;;;5052114;28;20083;-59
2021/07/04 11:44:00;;;;;;;3.80;3.40;;;;;;;;;;5051038;28;20041;-59
2021/07/04 11:46:28;;;;;;;5.07;3.70;;;;;;;;;;5053472;28;20457;-59
2021/07/04 11:49:08;;;;;;;7.97;3.72;;;;;;;;;;5058084;28;20710;-59
2021/07/04 11:51:35;;;;;;;9.38;3.50;;;;;;;;;;5057878;28;20060;-59
2021/07/04 11:54:04;;;;;;;4.68;3.05;;;;;;;;;;5059716;28;20059;-59
2021/07/04 11:56:30;;;;;;;4.63;3.17;;;;;;;;;;5055572;28;20830;-59
2021/07/04 11:59:11;;;;;;;5.38;3.70;;;;;;;;;;5051303;28;20053;-59
2021/07/04 12:01:42;;;;;;;6.50;3.65;;;;;;;;;;5055921;28;20145;-59
2021/07/04 12:04:08;;;;;;;3.88;3.55;;;;;;;;;;5050820;28;20040;-59
2021/07/04 12:06:36;;;;;;;4.88;3.80;;;;;;;;;;5049624;28;20045;-59
2021/07/04 12:28:40;;;;;;;4.05;3.33;;;;;;;;;;5091391;27;1347327;-61
2021/07/04 13:28:37;;;;;;;4.75;4.13;;;;;;;;;;5058585;28;20479;-61
2021/07/04 13:31:12;;;;;;;6.00;4.03;;;;;;;;;;5060820;28;20051;-61
2021/07/04 13:33:39;;;;;;;9.93;4.75;;;;;;;;;;5061802;28;20051;-61
2021/07/04 13:36:13;;;;;;;5.32;4.70;;;;;;;;;;5059820;28;20043;-61
2021/07/04 13:38:55;;;;;;;5.80;4.57;;;;;;;;;;5061599;28;20032;-61
2021/07/04 13:41:23;;;;;;;5.47;4.82;;;;;;;;;;5062558;28;20041;-61
2021/07/04 13:43:49;;;;;;;5.82;4.55;;;;;;;;;;5062386;28;20120;-61
2021/07/04 15:29:34;;;;;;;12.63;7.05;;;;;;;;;;5053560;28;20921;-59
2021/07/04 15:32:02;;;;;;;12.65;7.55;;;;;;;;;;5033044;28;20034;-59
2021/07/04 15:34:29;;;;;;;12.20;6.23;;;;;;;;;;5036948;28;20065;-60
2021/07/04 15:36:55;;;;;;;7.10;5.53;;;;;;;;;;5041582;28;20489;-59
2021/07/04 15:39:22;;;;;;;10.52;5.38;;;;;;;;;;5038712;28;20067;-60
2021/07/04 15:41:50;;;;;;;13.63;6.20;;;;;;;;;;5038004;28;20095;-60
2021/07/04 15:44:16;;;;;;;17.48;6.57;;;;;;;;;;5034272;28;20033;-59
2021/07/04 15:46:44;;;;;;;;;;;;;;;;;;5036194;28;20052;-60
2021/07/04 16:30:38;;;;;;;6.47;5.00;;;;;;;;;;5051772;28;20939;-59
2021/07/04 17:30:37;;;;;;;8.75;6.93;;;;;;;;;;5079428;27;20391;-56
2021/07/04 17:33:04;;;;;;;7.72;6.72;;;;;;;;;;5065700;28;20538;-57
2021/07/04 17:35:31;;;;;;;7.50;6.80;;;;;;;;;;5056665;28;20513;-56
2021/07/04 17:37:58;;;;;;;9.70;7.45;;;;;;;;;;5055712;28;20045;-57
2021/07/04 19:30:35;;;;;;;15.82;10.40;;;;;;;;;;5058950;28;20432;-58
